Time;durP1;ratioP1;P1;durP2;ratioP2;P2;SDS_P1;SDS_P2;PMS_P1;PMS_P2;Temp;Humidity;BMP_temperature;BMP_pressure;BME280_temperature;BME280_humidity;BME280_pressure;Samples;Min_cycle;Max_cycle;Signal;HPM_P1;HPM_P2
2023/05/08 00:00:59;;;;;;;3.60;3.30;;;;;;;;;;5044890;28;20044;-68
2023/05/08 00:03:25;;;;;;;3.90;3.60;;;;;;;;;;5026656;28;20488;-68
2023/05/08 00:05:54;;;;;;;3.67;3.38;;;;;;;;;;5027165;28;20597;-69
2023/05/08 00:08:20;;;;;;;3.28;2.97;;;;;;;;;;5027082;28;20037;-68
2023/05/08 00:10:46;;;;;;;4.55;4.15;;;;;;;;;;5045102;28;20037;-69
2023/05/08 00:13:12;;;;;;;4.93;4.53;;;;;;;;;;5027339;28;20040;-68
2023/05/08 00:15:38;;;;;;;4.95;4.55;;;;;;;;;;5045035;28;20040;-68
2023/05/08 00:18:04;;;;;;;4.10;3.80;;;;;;;;;;5044180;28;20515;-68
2023/05/08 00:20:30;;;;;;;4.00;3.70;;;;;;;;;;5026211;28;20125;-68
2023/05/08 00:22:56;;;;;;;3.45;3.15;;;;;;;;;;5026998;28;20048;-68
2023/05/08 00:25:22;;;;;;;3.90;3.60;;;;;;;;;;5044457;28;20076;-68
2023/05/08 00:27:49;;;;;;;4.00;3.70;;;;;;;;;;5026766;28;20052;-69
2023/05/08 00:30:15;;;;;;;4.15;3.75;;;;;;;;;;5026430;28;20041;-68
2023/05/08 00:32:41;;;;;;;3.70;3.40;;;;;;;;;;5045014;28;20140;-68
2023/05/08 00:35:08;;;;;;;3.47;3.17;;;;;;;;;;5027750;28;20183;-68
2023/05/08 00:37:36;;;;;;;4.03;3.72;;;;;;;;;;5025871;28;20583;-68
2023/05/08 00:40:02;;;;;;;3.85;3.55;;;;;;;;;;5044437;28;20286;-68
2023/05/08 00:42:28;;;;;;;4.32;4.00;;;;;;;;;;5044332;28;20037;-68
2023/05/08 00:44:55;;;;;;;4.10;3.80;;;;;;;;;;5043503;28;20044;-68
2023/05/08 00:47:22;;;;;;;6.05;5.53;;;;;;;;;;5044136;28;20063;-68
2023/05/08 00:49:48;;;;;;;6.43;5.90;;;;;;;;;;5025914;28;20508;-68
2023/05/08 00:52:15;;;;;;;6.40;5.85;;;;;;;;;;5043411;28;20037;-68
2023/05/08 00:54:41;;;;;;;6.30;5.70;;;;;;;;;;5026860;28;20033;-68
2023/05/08 00:57:07;;;;;;;5.95;5.45;;;;;;;;;;5046123;28;20114;-69
2023/05/08 00:59:35;;;;;;;5.72;4.55;;;;;;;;;;5025937;28;20892;-68
2023/05/08 01:02:02;;;;;;;5.40;4.97;;;;;;;;;;5026131;28;20140;-68
2023/05/08 01:04:30;;;;;;;4.20;3.90;;;;;;;;;;5043323;28;20072;-68
2023/05/08 01:06:56;;;;;;;4.90;4.50;;;;;;;;;;5043063;28;20053;-68
2023/05/08 01:09:22;;;;;;;5.25;4.85;;;;;;;;;;5025992;28;20051;-68
2023/05/08 01:12:08;;;;;;;5.03;4.63;;;;;;;;;;5030298;28;20041;-68
2023/05/08 01:14:42;;;;;;;5.25;4.75;;;;;;;;;;5042908;28;20045;-68
2023/05/08 01:17:16;;;;;;;5.07;4.68;;;;;;;;;;5025760;28;20049;-68
2023/05/08 01:20:00;;;;;;;5.00;4.60;;;;;;;;;;5024198;28;20045;-68
2023/05/08 01:22:26;;;;;;;5.28;4.88;;;;;;;;;;5043290;28;20483;-68
2023/05/08 01:25:02;;;;;;;6.10;5.57;;;;;;;;;;5026150;28;20041;-68
2023/05/08 01:27:47;;;;;;;5.65;5.13;;;;;;;;;;5043145;28;20399;-68
2023/05/08 01:30:32;;;;;;;5.70;5.20;;;;;;;;;;5025732;28;20128;-68
2023/05/08 01:33:02;;;;;;;4.90;4.50;;;;;;;;;;5043072;28;20049;-68
2023/05/08 01:35:40;;;;;;;5.10;4.70;;;;;;;;;;5045406;28;20041;-68
2023/05/08 01:38:07;;;;;;;5.50;4.90;;;;;;;;;;5043559;28;20545;-68
2023/05/08 01:40:38;;;;;;;5.22;4.82;;;;;;;;;;5043670;28;20075;-68
2023/05/08 01:43:12;;;;;;;5.95;5.45;;;;;;;;;;5045958;28;20841;-67
2023/05/08 01:45:39;;;;;;;5.07;4.68;;;;;;;;;;5025163;28;20135;-68
2023/05/08 01:48:09;;;;;;;5.03;4.55;;;;;;;;;;5041576;28;20079;-68
2023/05/08 01:50:38;;;;;;;6.00;5.43;;;;;;;;;;5025519;28;20045;-68
2023/05/08 01:53:10;;;;;;;5.38;4.97;;;;;;;;;;5043660;28;20260;-68
2023/05/08 01:55:37;;;;;;;6.50;5.97;;;;;;;;;;5025307;28;20056;-68
2023/05/08 01:58:05;;;;;;;5.85;5.35;;;;;;;;;;5042971;28;20562;-68
2023/05/08 02:00:32;;;;;;;5.43;4.95;;;;;;;;;;5024205;28;20075;-68
2023/05/08 02:02:58;;;;;;;5.93;5.47;;;;;;;;;;5042669;28;20057;-68
2023/05/08 02:05:25;;;;;;;8.15;7.35;;;;;;;;;;5043379;28;20047;-68
2023/05/08 02:07:51;;;;;;;6.32;5.70;;;;;;;;;;5043445;28;20040;-68
2023/05/08 02:10:19;;;;;;;5.72;5.22;;;;;;;;;;5025100;28;20040;-68
2023/05/08 02:12:46;;;;;;;7.05;5.68;;;;;;;;;;5025641;28;20549;-68
2023/05/08 02:15:13;;;;;;;5.25;4.85;;;;;;;;;;5025461;28;20433;-68
2023/05/08 02:17:39;;;;;;;6.32;5.82;;;;;;;;;;5025179;28;20049;-68
2023/05/08 02:20:06;;;;;;;5.25;4.85;;;;;;;;;;5024882;28;20510;-68
2023/05/08 02:22:33;;;;;;;5.47;5.05;;;;;;;;;;5042222;28;20049;-68
2023/05/08 02:25:02;;;;;;;6.45;4.85;;;;;;;;;;5024317;28;20106;-68
2023/05/08 02:27:29;;;;;;;5.60;5.15;;;;;;;;;;5025041;28;20045;-68
2023/05/08 02:29:56;;;;;;;5.70;5.20;;;;;;;;;;5024182;28;20060;-68
2023/05/08 02:32:25;;;;;;;6.97;6.35;;;;;;;;;;5043038;28;20488;-68
2023/05/08 02:34:51;;;;;;;6.70;5.90;;;;;;;;;;5025104;28;20041;-68
2023/05/08 02:37:19;;;;;;;6.18;5.68;;;;;;;;;;5024543;28;20049;-68
2023/05/08 02:39:46;;;;;;;6.07;5.57;;;;;;;;;;5025547;28;20045;-68
2023/05/08 02:42:12;;;;;;;5.15;4.75;;;;;;;;;;5043920;28;20048;-68
2023/05/08 02:44:38;;;;;;;5.28;4.78;;;;;;;;;;5024226;28;20041;-68
2023/05/08 02:47:09;;;;;;;6.18;5.57;;;;;;;;;;5024474;28;20053;-68
2023/05/08 02:49:42;;;;;;;4.80;4.30;;;;;;;;;;5025114;28;20052;-68
2023/05/08 02:52:08;;;;;;;;;;;;;;;;;;5042475;28;20626;-68
2023/05/08 02:54:46;;;;;;;3.90;3.60;;;;;;;;;;5024629;28;20003;-68
2023/05/08 02:57:18;;;;;;;4.20;3.90;;;;;;;;;;5025650;28;20079;-68
2023/05/08 02:59:46;;;;;;;4.78;4.38;;;;;;;;;;5025556;28;20047;-68
2023/05/08 03:02:15;;;;;;;5.47;4.97;;;;;;;;;;5028959;28;20056;-68
2023/05/08 03:04:46;;;;;;;6.45;5.85;;;;;;;;;;5045643;28;20404;-68
2023/05/08 03:07:12;;;;;;;5.03;4.60;;;;;;;;;;5046045;28;20076;-68
2023/05/08 03:09:43;;;;;;;4.85;4.45;;;;;;;;;;5028740;28;20111;-68
2023/05/08 03:12:12;;;;;;;4.90;4.50;;;;;;;;;;5027453;28;20142;-68
2023/05/08 03:14:42;;;;;;;6.22;5.72;;;;;;;;;;5046339;28;20124;-68
2023/05/08 03:17:10;;;;;;;5.85;5.35;;;;;;;;;;5045695;28;20485;-68
2023/05/08 03:19:37;;;;;;;5.22;4.68;;;;;;;;;;5045226;28;20470;-68
2023/05/08 03:22:04;;;;;;;4.80;4.40;;;;;;;;;;5045828;28;20049;-68
2023/05/08 03:24:33;;;;;;;4.72;4.32;;;;;;;;;;5027377;28;20479;-68
2023/05/08 03:26:59;;;;;;;4.13;3.83;;;;;;;;;;5026959;28;20139;-68
2023/05/08 03:29:26;;;;;;;5.65;5.15;;;;;;;;;;5045608;28;20127;-68
2023/05/08 03:31:53;;;;;;;7.75;6.95;;;;;;;;;;5027572;28;20053;-68
2023/05/08 03:34:20;;;;;;;6.68;6.03;;;;;;;;;;5044575;28;20075;-68
2023/05/08 03:36:46;;;;;;;5.68;5.18;;;;;;;;;;5025303;28;20047;-68
2023/05/08 03:39:12;;;;;;;5.25;4.82;;;;;;;;;;5027771;28;20049;-68
2023/05/08 03:41:38;;;;;;;6.05;5.55;;;;;;;;;;5026717;28;20119;-68
2023/05/08 03:44:05;;;;;;;6.20;5.60;;;;;;;;;;5027158;28;20045;-68
2023/05/08 03:46:32;;;;;;;6.30;5.80;;;;;;;;;;5031242;28;20060;-68
2023/05/08 03:48:59;;;;;;;6.75;6.13;;;;;;;;;;5026553;28;20064;-68
2023/05/08 03:51:27;;;;;;;5.78;5.28;;;;;;;;;;5043836;28;20045;-68
2023/05/08 03:53:53;;;;;;;5.72;5.22;;;;;;;;;;5027463;28;20048;-68
2023/05/08 03:56:19;;;;;;;5.75;5.20;;;;;;;;;;5047262;28;20037;-68
2023/05/08 03:58:51;;;;;;;6.15;5.55;;;;;;;;;;5027586;28;20128;-68
2023/05/08 04:01:39;;;;;;;6.88;6.28;;;;;;;;;;5044144;28;20037;-68
2023/05/08 04:04:23;;;;;;;5.93;5.43;;;;;;;;;;5044346;28;20063;-68
2023/05/08 04:06:55;;;;;;;5.50;5.00;;;;;;;;;;5044425;28;20044;-68
2023/05/08 04:09:34;;;;;;;5.07;4.68;;;;;;;;;;5024352;28;20041;-68
2023/05/08 04:12:05;;;;;;;6.20;5.40;;;;;;;;;;5027934;28;20449;-68
2023/05/08 04:14:34;;;;;;;6.22;5.72;;;;;;;;;;5027238;28;20044;-68
2023/05/08 04:17:02;;;;;;;5.70;5.20;;;;;;;;;;5044279;28;20194;-67
2023/05/08 04:19:29;;;;;;;5.72;5.22;;;;;;;;;;5027032;28;20067;-68
2023/05/08 04:21:58;;;;;;;6.65;6.13;;;;;;;;;;5026583;28;20075;-68
2023/05/08 04:24:27;;;;;;;5.70;5.20;;;;;;;;;;5044042;28;20033;-67
2023/05/08 04:26:53;;;;;;;6.30;5.70;;;;;;;;;;5044978;28;20049;-68
2023/05/08 04:29:19;;;;;;;6.75;6.07;;;;;;;;;;5027124;28;20388;-68
2023/05/08 04:31:46;;;;;;;6.72;6.03;;;;;;;;;;5023230;28;20049;-68
2023/05/08 04:34:13;;;;;;;6.78;6.18;;;;;;;;;;5044831;28;20130;-67
2023/05/08 04:36:39;;;;;;;6.78;6.18;;;;;;;;;;5027289;28;20037;-68
2023/05/08 04:39:05;;;;;;;7.88;6.70;;;;;;;;;;5025968;28;20517;-68
2023/05/08 04:41:31;;;;;;;6.65;6.05;;;;;;;;;;5026343;28;20048;-68
2023/05/08 04:43:58;;;;;;;6.15;5.65;;;;;;;;;;5025917;28;20183;-68
2023/05/08 04:46:24;;;;;;;6.65;5.82;;;;;;;;;;5029821;28;20141;-68
2023/05/08 04:48:50;;;;;;;6.63;6.03;;;;;;;;;;5028589;28;20049;-68
2023/05/08 04:51:16;;;;;;;6.25;5.65;;;;;;;;;;5025254;28;20072;-68
2023/05/08 04:53:42;;;;;;;5.53;5.10;;;;;;;;;;5047682;28;20043;-68
2023/05/08 04:56:08;;;;;;;5.28;4.88;;;;;;;;;;5043821;28;20082;-68
2023/05/08 04:58:34;;;;;;;5.68;5.18;;;;;;;;;;5043569;28;20184;-69
2023/05/08 05:01:04;;;;;;;5.82;5.28;;;;;;;;;;5024789;28;20075;-69
2023/05/08 05:03:30;;;;;;;5.60;5.10;;;;;;;;;;5026215;28;20475;-70
2023/05/08 05:06:00;;;;;;;6.25;5.65;;;;;;;;;;5025325;28;20519;-70
2023/05/08 05:08:26;;;;;;;7.25;6.65;;;;;;;;;;5025995;28;20060;-68
2023/05/08 05:10:52;;;;;;;6.25;5.65;;;;;;;;;;5044246;28;20072;-68
2023/05/08 05:13:18;;;;;;;5.82;5.20;;;;;;;;;;5043484;28;20076;-70
2023/05/08 05:15:45;;;;;;;6.43;5.82;;;;;;;;;;5010055;28;20044;-70
2023/05/08 05:18:11;;;;;;;6.72;6.13;;;;;;;;;;5044271;28;20048;-70
2023/05/08 05:20:37;;;;;;;5.85;5.35;;;;;;;;;;5025169;28;20036;-67
2023/05/08 05:23:03;;;;;;;5.60;5.10;;;;;;;;;;5042501;28;20049;-67
2023/05/08 05:25:29;;;;;;;5.43;5.00;;;;;;;;;;5043849;28;20044;-68
2023/05/08 05:27:55;;;;;;;6.03;5.53;;;;;;;;;;5024985;28;20041;-68
2023/05/08 05:30:21;;;;;;;6.57;5.97;;;;;;;;;;5025665;28;20120;-69
2023/05/08 05:32:47;;;;;;;5.57;4.95;;;;;;;;;;5043089;28;20065;-69
2023/05/08 05:35:13;;;;;;;5.55;4.97;;;;;;;;;;5025796;28;20041;-70
2023/05/08 05:37:40;;;;;;;5.07;4.68;;;;;;;;;;5043633;28;20037;-70
2023/05/08 05:40:06;;;;;;;4.43;4.07;;;;;;;;;;5024952;28;20066;-68
2023/05/08 05:42:32;;;;;;;5.40;5.00;;;;;;;;;;5045859;28;20099;-68
2023/05/08 05:44:58;;;;;;;5.32;4.93;;;;;;;;;;5025370;28;20082;-68
2023/05/08 05:47:24;;;;;;;6.40;5.80;;;;;;;;;;5042454;28;20121;-68
2023/05/08 05:49:50;;;;;;;6.55;5.93;;;;;;;;;;5026051;28;20119;-67
2023/05/08 05:52:16;;;;;;;6.45;5.90;;;;;;;;;;5028094;28;20503;-68
2023/05/08 05:54:42;;;;;;;5.85;5.35;;;;;;;;;;5043206;28;20051;-68
2023/05/08 05:57:08;;;;;;;5.63;5.15;;;;;;;;;;5025567;28;20508;-70
2023/05/08 05:59:34;;;;;;;6.60;6.03;;;;;;;;;;5042539;28;20483;-68
2023/05/08 06:02:01;;;;;;;5.93;5.43;;;;;;;;;;5042283;28;20473;-68
2023/05/08 06:04:27;;;;;;;7.22;6.63;;;;;;;;;;5025501;28;20144;-69
2023/05/08 06:06:53;;;;;;;8.32;7.63;;;;;;;;;;5024489;28;20132;-69
2023/05/08 06:09:19;;;;;;;7.68;7.05;;;;;;;;;;5025029;28;20052;-68
2023/05/08 06:11:46;;;;;;;6.55;5.95;;;;;;;;;;5043277;28;20077;-69
2023/05/08 06:14:12;;;;;;;5.50;5.10;;;;;;;;;;5042377;28;20526;-69
2023/05/08 06:16:38;;;;;;;5.40;5.00;;;;;;;;;;5042364;28;20044;-69
2023/05/08 06:19:04;;;;;;;5.20;4.80;;;;;;;;;;5042265;28;20052;-69
2023/05/08 06:21:30;;;;;;;5.85;5.35;;;;;;;;;;5025057;28;20441;-69
2023/05/08 06:23:56;;;;;;;6.25;5.72;;;;;;;;;;5024681;28;20041;-69
2023/05/08 06:26:22;;;;;;;5.32;4.88;;;;;;;;;;5044340;28;20041;-69
2023/05/08 06:28:48;;;;;;;7.03;6.32;;;;;;;;;;5043414;28;20072;-69
2023/05/08 06:31:14;;;;;;;6.28;5.75;;;;;;;;;;5042482;28;20056;-69
2023/05/08 06:33:40;;;;;;;5.57;5.18;;;;;;;;;;5043323;28;20360;-69
2023/05/08 06:36:06;;;;;;;4.25;3.92;;;;;;;;;;5046008;28;20053;-69
2023/05/08 06:38:32;;;;;;;4.85;4.45;;;;;;;;;;5047436;28;20107;-69
2023/05/08 06:40:58;;;;;;;6.70;6.10;;;;;;;;;;5029554;28;20464;-69
2023/05/08 06:43:24;;;;;;;6.47;5.90;;;;;;;;;;5029141;28;20045;-69
2023/05/08 06:45:51;;;;;;;8.57;7.78;;;;;;;;;;5041739;28;20526;-68
2023/05/08 06:48:17;;;;;;;8.52;7.80;;;;;;;;;;5026522;28;20061;-69
2023/05/08 06:50:44;;;;;;;7.07;6.47;;;;;;;;;;5029554;28;20191;-69
2023/05/08 06:53:10;;;;;;;7.18;6.47;;;;;;;;;;5029896;28;20045;-69
2023/05/08 06:55:36;;;;;;;5.80;5.30;;;;;;;;;;5029900;28;20540;-69
2023/05/08 06:58:02;;;;;;;6.10;5.55;;;;;;;;;;5028981;28;20139;-69
2023/05/08 07:00:28;;;;;;;5.90;5.40;;;;;;;;;;5046630;28;20041;-69
2023/05/08 07:02:54;;;;;;;4.68;4.35;;;;;;;;;;5032717;28;20132;-69
2023/05/08 07:05:20;;;;;;;5.68;5.03;;;;;;;;;;5027431;28;20045;-65
2023/05/08 07:07:46;;;;;;;7.03;6.43;;;;;;;;;;5036329;28;20060;-65
2023/05/08 07:10:12;;;;;;;5.75;5.25;;;;;;;;;;5047531;28;20424;-66
2023/05/08 07:12:39;;;;;;;5.65;5.25;;;;;;;;;;5028959;28;20045;-66
2023/05/08 07:15:06;;;;;;;5.78;5.28;;;;;;;;;;5046993;28;20061;-66
2023/05/08 07:17:35;;;;;;;4.78;4.45;;;;;;;;;;5029310;28;20049;-66
2023/05/08 07:20:02;;;;;;;5.43;5.03;;;;;;;;;;5028619;28;20061;-67
2023/05/08 07:22:28;;;;;;;6.20;5.70;;;;;;;;;;5046974;28;20136;-66
2023/05/08 07:24:54;;;;;;;5.75;5.25;;;;;;;;;;5028949;28;20579;-66
2023/05/08 07:27:20;;;;;;;4.95;4.55;;;;;;;;;;5032479;28;20045;-66
2023/05/08 07:29:46;;;;;;;5.53;5.03;;;;;;;;;;5046607;28;20573;-66
2023/05/08 07:32:12;;;;;;;5.10;4.72;;;;;;;;;;5045487;28;20102;-66
2023/05/08 07:34:38;;;;;;;4.75;4.35;;;;;;;;;;5028865;28;20111;-66
2023/05/08 07:37:04;;;;;;;3.97;3.67;;;;;;;;;;5028709;28;20061;-66
2023/05/08 07:39:30;;;;;;;5.38;4.97;;;;;;;;;;5028410;28;20442;-68
2023/05/08 07:41:56;;;;;;;5.13;4.72;;;;;;;;;;5028532;28;20052;-68
2023/05/08 07:44:22;;;;;;;4.03;3.72;;;;;;;;;;5046659;28;20495;-67
2023/05/08 07:46:48;;;;;;;5.55;5.15;;;;;;;;;;5044873;28;20136;-66
2023/05/08 07:49:14;;;;;;;4.63;4.32;;;;;;;;;;5047084;28;20088;-66
2023/05/08 07:51:41;;;;;;;4.80;4.50;;;;;;;;;;5046284;28;20069;-66
2023/05/08 07:54:07;;;;;;;4.75;4.35;;;;;;;;;;5027989;28;20136;-66
2023/05/08 07:56:33;;;;;;;4.72;4.32;;;;;;;;;;5046706;28;20055;-66
2023/05/08 07:58:59;;;;;;;4.60;4.30;;;;;;;;;;5028434;28;20519;-67
2023/05/08 08:01:25;;;;;;;7.03;6.32;;;;;;;;;;5026919;28;20044;-66
2023/05/08 08:03:53;;;;;;;7.50;6.80;;;;;;;;;;5044994;28;20041;-67
2023/05/08 08:06:19;;;;;;;6.88;6.28;;;;;;;;;;5027199;28;20049;-66
2023/05/08 08:08:45;;;;;;;6.60;6.03;;;;;;;;;;5026326;28;20376;-66
2023/05/08 08:11:11;;;;;;;5.95;5.45;;;;;;;;;;5045393;28;20099;-66
2023/05/08 08:13:37;;;;;;;5.50;5.10;;;;;;;;;;5025660;28;20125;-66
2023/05/08 08:16:03;;;;;;;5.75;5.25;;;;;;;;;;5044466;28;20558;-66
2023/05/08 08:18:29;;;;;;;6.88;6.28;;;;;;;;;;5019612;28;20064;-67
2023/05/08 08:20:55;;;;;;;5.95;5.45;;;;;;;;;;5019158;28;20190;-66
2023/05/08 08:23:21;;;;;;;5.70;5.22;;;;;;;;;;5024762;28;20407;-66
2023/05/08 08:25:47;;;;;;;6.10;5.70;;;;;;;;;;5041787;28;20040;-66
2023/05/08 08:28:13;;;;;;;6.03;5.53;;;;;;;;;;5036163;28;20057;-66
2023/05/08 08:30:39;;;;;;;6.18;5.68;;;;;;;;;;5034377;28;20708;-66
2023/05/08 08:33:06;;;;;;;6.53;6.03;;;;;;;;;;5019633;28;20057;-66
2023/05/08 08:35:32;;;;;;;5.93;5.45;;;;;;;;;;5026490;28;20053;-66
2023/05/08 08:37:58;;;;;;;4.60;4.30;;;;;;;;;;5040332;28;20049;-66
2023/05/08 08:40:24;;;;;;;5.07;4.68;;;;;;;;;;5043202;28;20045;-66
2023/05/08 08:42:50;;;;;;;5.03;4.63;;;;;;;;;;5037621;28;20037;-66
2023/05/08 08:45:16;;;;;;;4.90;4.60;;;;;;;;;;5041286;28;20131;-66
2023/05/08 08:47:44;;;;;;;6.10;5.70;;;;;;;;;;5016997;28;20213;-66
2023/05/08 08:50:12;;;;;;;6.07;5.57;;;;;;;;;;5018962;28;20099;-66
2023/05/08 08:52:40;;;;;;;5.78;4.93;;;;;;;;;;5015729;28;20050;-66
2023/05/08 08:55:09;;;;;;;5.95;5.35;;;;;;;;;;5015884;28;20053;-66
2023/05/08 08:57:36;;;;;;;6.72;6.10;;;;;;;;;;5011732;28;20574;-66
2023/05/08 09:00:04;;;;;;;7.13;6.50;;;;;;;;;;5012749;28;20468;-66
2023/05/08 09:02:31;;;;;;;7.60;6.97;;;;;;;;;;5008955;28;20076;-65
2023/05/08 09:04:58;;;;;;;7.22;6.72;;;;;;;;;;5016755;28;20041;-66
2023/05/08 09:07:24;;;;;;;5.75;5.25;;;;;;;;;;5015668;28;20061;-65
2023/05/08 09:09:51;;;;;;;6.60;6.05;;;;;;;;;;5020244;28;20034;-66
2023/05/08 09:12:17;;;;;;;6.57;5.93;;;;;;;;;;5019042;28;20412;-66
2023/05/08 09:14:43;;;;;;;6.60;6.10;;;;;;;;;;5018610;28;20046;-66
2023/05/08 09:17:09;;;;;;;6.85;6.35;;;;;;;;;;5017787;28;20041;-66
2023/05/08 09:19:36;;;;;;;7.20;6.50;;;;;;;;;;5015085;28;20623;-66
2023/05/08 09:22:03;;;;;;;7.03;6.53;;;;;;;;;;5019462;28;20131;-66
2023/05/08 09:24:47;;;;;;;6.97;6.47;;;;;;;;;;5021825;28;20068;-66
2023/05/08 09:27:20;;;;;;;8.13;7.45;;;;;;;;;;5024750;28;20049;-66
2023/05/08 09:29:57;;;;;;;6.70;6.20;;;;;;;;;;5020669;28;20085;-66
2023/05/08 09:32:23;;;;;;;6.50;6.00;;;;;;;;;;5021038;28;20057;-66
2023/05/08 09:34:52;;;;;;;5.20;4.70;;;;;;;;;;5023165;28;20120;-66
2023/05/08 09:37:18;;;;;;;6.75;6.25;;;;;;;;;;5024754;28;20050;-66
2023/05/08 09:39:46;;;;;;;5.68;5.28;;;;;;;;;;5018272;28;20088;-66
2023/05/08 09:42:13;;;;;;;7.97;7.22;;;;;;;;;;5022682;28;20085;-66
2023/05/08 09:44:52;;;;;;;6.80;6.30;;;;;;;;;;5016288;28;20050;-66
2023/05/08 09:47:21;;;;;;;6.15;5.65;;;;;;;;;;5028414;28;20503;-66
2023/05/08 09:50:02;;;;;;;4.78;4.47;;;;;;;;;;5024821;28;20049;-66
2023/05/08 09:52:29;;;;;;;6.23;5.63;;;;;;;;;;5038422;28;20110;-66
2023/05/08 09:55:06;;;;;;;5.82;5.32;;;;;;;;;;5033926;28;20079;-66
2023/05/08 09:57:33;;;;;;;5.60;5.20;;;;;;;;;;5029217;28;20081;-66
2023/05/08 10:00:02;;;;;;;5.18;4.78;;;;;;;;;;5037778;28;20407;-66
2023/05/08 10:02:28;;;;;;;5.78;5.30;;;;;;;;;;5036268;28;20128;-65
2023/05/08 10:04:56;;;;;;;5.90;5.43;;;;;;;;;;5021734;28;20048;-65
2023/05/08 10:07:29;;;;;;;6.95;6.45;;;;;;;;;;5019220;28;20059;-66
2023/05/08 10:10:05;;;;;;;6.80;6.28;;;;;;;;;;5036584;28;20033;-65
2023/05/08 10:12:31;;;;;;;7.38;6.80;;;;;;;;;;5043963;28;20088;-65
2023/05/08 10:14:57;;;;;;;9.07;8.27;;;;;;;;;;5040907;28;20479;-65
2023/05/08 10:17:29;;;;;;;7.70;7.10;;;;;;;;;;5041090;28;20056;-65
2023/05/08 10:19:59;;;;;;;7.35;6.80;;;;;;;;;;5017339;28;20049;-66
2023/05/08 10:22:25;;;;;;;5.78;5.28;;;;;;;;;;5043057;28;20056;-65
2023/05/08 10:24:55;;;;;;;6.18;5.68;;;;;;;;;;5034172;28;20110;-65
2023/05/08 10:27:29;;;;;;;7.45;6.85;;;;;;;;;;5058053;28;20047;-65
2023/05/08 10:29:56;;;;;;;5.35;4.95;;;;;;;;;;5026531;28;20061;-65
2023/05/08 10:32:23;;;;;;;7.88;7.18;;;;;;;;;;5039137;28;20102;-66
2023/05/08 10:34:53;;;;;;;5.10;4.70;;;;;;;;;;5016362;28;20053;-65
2023/05/08 10:37:19;;;;;;;5.03;4.72;;;;;;;;;;5029517;28;20046;-66
2023/05/08 10:39:46;;;;;;;5.15;4.75;;;;;;;;;;5018441;28;20128;-65
2023/05/08 10:42:13;;;;;;;5.05;4.65;;;;;;;;;;5038486;28;20132;-65
2023/05/08 10:44:39;;;;;;;6.30;5.80;;;;;;;;;;5023015;28;20095;-65
2023/05/08 10:47:05;;;;;;;6.28;5.88;;;;;;;;;;5036877;28;20175;-65
2023/05/08 10:49:43;;;;;;;6.47;5.97;;;;;;;;;;5027635;28;20167;-66
2023/05/08 10:52:17;;;;;;;7.60;7.00;;;;;;;;;;5039529;28;20037;-66
2023/05/08 10:54:49;;;;;;;7.75;7.15;;;;;;;;;;5025864;28;20065;-65
2023/05/08 10:57:15;;;;;;;6.03;5.60;;;;;;;;;;5022745;28;20041;-66
2023/05/08 10:59:44;;;;;;;5.43;5.03;;;;;;;;;;5040012;28;20064;-65
2023/05/08 11:02:11;;;;;;;5.80;5.40;;;;;;;;;;5046495;28;20049;-66
2023/05/08 11:04:37;;;;;;;7.63;7.03;;;;;;;;;;5041304;28;20045;-65
2023/05/08 11:07:03;;;;;;;8.82;8.13;;;;;;;;;;5028943;28;20052;-65
2023/05/08 11:09:42;;;;;;;5.95;5.55;;;;;;;;;;5046133;28;20511;-66
2023/05/08 11:12:26;;;;;;;8.40;7.70;;;;;;;;;;5045193;28;20049;-66
2023/05/08 11:15:03;;;;;;;5.95;5.50;;;;;;;;;;5044928;28;20099;-66
2023/05/08 11:17:30;;;;;;;6.22;5.72;;;;;;;;;;5045675;28;20084;-66
2023/05/08 11:19:57;;;;;;;8.13;7.43;;;;;;;;;;5044558;28;20095;-66
2023/05/08 11:22:25;;;;;;;7.28;6.68;;;;;;;;;;5026933;28;20056;-65
2023/05/08 11:24:55;;;;;;;6.80;6.30;;;;;;;;;;5037307;28;20536;-66
2023/05/08 11:27:33;;;;;;;8.90;8.20;;;;;;;;;;5046357;28;20049;-66
2023/05/08 11:30:17;;;;;;;9.18;8.43;;;;;;;;;;5019388;28;20052;-66
2023/05/08 11:33:02;;;;;;;9.20;8.30;;;;;;;;;;5044507;28;20123;-66
2023/05/08 11:35:40;;;;;;;8.38;6.38;;;;;;;;;;5042781;28;20049;-65
2023/05/08 11:38:18;;;;;;;6.80;6.20;;;;;;;;;;5039724;28;20052;-68
2023/05/08 11:40:49;;;;;;;5.95;5.55;;;;;;;;;;5043389;28;20087;-66
2023/05/08 11:43:27;;;;;;;6.22;5.72;;;;;;;;;;5042632;28;20056;-65
2023/05/08 11:45:53;;;;;;;6.53;6.03;;;;;;;;;;5033470;28;20045;-65
2023/05/08 11:48:20;;;;;;;5.38;4.97;;;;;;;;;;5045592;28;20049;-66
2023/05/08 11:50:46;;;;;;;7.60;7.00;;;;;;;;;;5024166;28;20436;-66
2023/05/08 11:53:12;;;;;;;7.38;6.88;;;;;;;;;;5035304;28;20042;-67
2023/05/08 11:55:39;;;;;;;7.57;6.95;;;;;;;;;;5017499;28;20099;-66
2023/05/08 11:58:12;;;;;;;6.10;5.68;;;;;;;;;;5045697;28;20794;-66
2023/05/08 12:00:44;;;;;;;5.05;4.68;;;;;;;;;;5017835;28;20049;-66
2023/05/08 12:03:13;;;;;;;8.60;7.43;;;;;;;;;;5035687;28;20057;-66
2023/05/08 12:05:40;;;;;;;7.40;6.80;;;;;;;;;;5038689;28;20049;-65
2023/05/08 12:08:06;;;;;;;6.80;6.30;;;;;;;;;;5042479;28;20571;-65
2023/05/08 12:10:32;;;;;;;6.60;6.10;;;;;;;;;;5045222;28;20482;-65
2023/05/08 12:12:58;;;;;;;7.03;6.50;;;;;;;;;;5018664;28;20057;-65
2023/05/08 12:15:25;;;;;;;4.50;4.20;;;;;;;;;;5008207;28;20053;-65
2023/05/08 12:18:01;;;;;;;4.38;4.07;;;;;;;;;;5026657;28;20115;-65
2023/05/08 12:20:27;;;;;;;4.45;4.05;;;;;;;;;;5035974;28;20054;-65
2023/05/08 12:22:53;;;;;;;5.40;5.00;;;;;;;;;;5044845;28;20048;-66
2023/05/08 12:25:20;;;;;;;5.82;5.32;;;;;;;;;;5027700;28;20379;-65
2023/05/08 12:27:46;;;;;;;6.97;6.35;;;;;;;;;;5027437;28;20049;-67
2023/05/08 12:30:13;;;;;;;5.88;5.38;;;;;;;;;;5040965;28;20106;-66
2023/05/08 12:32:42;;;;;;;5.72;5.22;;;;;;;;;;5025153;28;20147;-66
2023/05/08 12:35:09;;;;;;;5.38;4.97;;;;;;;;;;5038042;28;20041;-66
2023/05/08 12:37:35;;;;;;;9.10;8.30;;;;;;;;;;5026707;28;20053;-66
2023/05/08 12:40:02;;;;;;;6.93;6.35;;;;;;;;;;5044136;28;20057;-66
2023/05/08 12:42:47;;;;;;;4.72;4.30;;;;;;;;;;5018906;28;20133;-66
2023/05/08 12:45:19;;;;;;;5.35;4.95;;;;;;;;;;5040279;28;20044;-66
2023/05/08 12:47:46;;;;;;;5.18;4.88;;;;;;;;;;5013884;28;20058;-66
2023/05/08 12:50:14;;;;;;;4.40;4.10;;;;;;;;;;5017095;28;20085;-65
2023/05/08 12:52:40;;;;;;;4.25;3.95;;;;;;;;;;5022658;28;20049;-66
2023/05/08 12:55:19;;;;;;;4.60;4.30;;;;;;;;;;5023273;28;20053;-65
2023/05/08 12:57:45;;;;;;;4.15;3.83;;;;;;;;;;5022521;28;20115;-65
2023/05/08 13:00:11;;;;;;;4.15;3.85;;;;;;;;;;5017525;28;20528;-65
2023/05/08 13:02:37;;;;;;;5.50;5.10;;;;;;;;;;5021312;28;20667;-65
2023/05/08 13:05:04;;;;;;;4.90;4.50;;;;;;;;;;5015809;28;20085;-65
2023/05/08 13:07:34;;;;;;;3.50;3.30;;;;;;;;;;5016335;28;20569;-65
2023/05/08 13:10:04;;;;;;;3.10;2.90;;;;;;;;;;5016169;28;20072;-65
2023/05/08 13:12:30;;;;;;;2.20;2.10;;;;;;;;;;5022468;28;20046;-65
2023/05/08 13:14:56;;;;;;;2.20;2.03;;;;;;;;;;5015088;28;20053;-65
2023/05/08 13:17:23;;;;;;;2.90;2.70;;;;;;;;;;5022525;28;20401;-65
2023/05/08 13:19:49;;;;;;;4.20;3.90;;;;;;;;;;5020659;28;20073;-66
2023/05/08 13:22:14;;;;;;;4.40;4.05;;;;;;;;;;5021105;28;20049;-65
2023/05/08 13:24:40;;;;;;;4.55;4.25;;;;;;;;;;5014967;28;20444;-65
2023/05/08 13:27:06;;;;;;;5.07;4.78;;;;;;;;;;5016710;28;20057;-65
2023/05/08 13:29:32;;;;;;;4.53;4.22;;;;;;;;;;5016970;28;20058;-65
2023/05/08 13:31:58;;;;;;;4.75;4.45;;;;;;;;;;5019774;28;20069;-65
2023/05/08 13:34:24;;;;;;;7.68;7.10;;;;;;;;;;5024090;28;20049;-65
2023/05/08 13:36:50;;;;;;;8.02;7.43;;;;;;;;;;5022877;28;20061;-65
2023/05/08 13:39:16;;;;;;;5.15;4.75;;;;;;;;;;5022538;28;20157;-65
2023/05/08 13:41:42;;;;;;;6.13;5.63;;;;;;;;;;5021576;28;20058;-65
2023/05/08 13:44:09;;;;;;;4.40;4.10;;;;;;;;;;5023578;28;20049;-65
2023/05/08 13:46:35;;;;;;;4.13;3.83;;;;;;;;;;5019377;28;20081;-65
2023/05/08 13:49:01;;;;;;;3.20;3.00;;;;;;;;;;5020071;28;20096;-65
2023/05/08 13:51:27;;;;;;;2.80;2.60;;;;;;;;;;5018113;28;20654;-65
2023/05/08 13:53:53;;;;;;;2.85;2.65;;;;;;;;;;5019396;28;20045;-65
2023/05/08 13:56:19;;;;;;;2.90;2.70;;;;;;;;;;5024705;28;20091;-65
2023/05/08 13:58:45;;;;;;;4.70;4.30;;;;;;;;;;5006767;28;20489;-65
2023/05/08 14:01:11;;;;;;;4.05;3.75;;;;;;;;;;5019162;28;20142;-66
2023/05/08 14:03:37;;;;;;;3.03;2.83;;;;;;;;;;5016763;28;20492;-66
2023/05/08 14:06:04;;;;;;;2.70;2.50;;;;;;;;;;5023897;28;20041;-66
2023/05/08 14:08:30;;;;;;;3.20;3.00;;;;;;;;;;5022446;28;20110;-66
2023/05/08 14:10:56;;;;;;;3.17;2.88;;;;;;;;;;5023863;28;20101;-66
2023/05/08 14:13:22;;;;;;;2.58;2.45;;;;;;;;;;5023726;28;20047;-66
2023/05/08 14:15:48;;;;;;;3.67;3.38;;;;;;;;;;5024070;28;20586;-66
2023/05/08 14:18:14;;;;;;;3.22;2.97;;;;;;;;;;5024513;28;20424;-66
2023/05/08 14:20:40;;;;;;;3.28;3.08;;;;;;;;;;5022181;28;20055;-66
2023/05/08 14:23:06;;;;;;;2.95;2.53;;;;;;;;;;5023867;28;20053;-66
2023/05/08 14:25:32;;;;;;;7.20;6.60;;;;;;;;;;5023813;28;20066;-66
2023/05/08 14:27:58;;;;;;;5.63;5.13;;;;;;;;;;5023259;28;20042;-66
2023/05/08 14:30:24;;;;;;;3.70;3.40;;;;;;;;;;5021561;28;20051;-66
2023/05/08 14:32:50;;;;;;;3.33;3.13;;;;;;;;;;5023584;28;21769;-66
2023/05/08 14:35:16;;;;;;;3.13;2.92;;;;;;;;;;5023897;28;20080;-66
2023/05/08 14:37:42;;;;;;;3.55;3.35;;;;;;;;;;5023752;28;20049;-66
2023/05/08 14:40:09;;;;;;;2.55;2.35;;;;;;;;;;5022254;28;20556;-66
2023/05/08 14:42:35;;;;;;;2.17;2.08;;;;;;;;;;5021450;28;20045;-70
2023/05/08 14:45:01;;;;;;;3.03;2.80;;;;;;;;;;5022331;28;20088;-67
2023/05/08 14:47:27;;;;;;;2.95;2.75;;;;;;;;;;5022107;28;20062;-67